createdAt,value
2022-12-27T00:00:06.567Z,620.88
2022-12-27T00:00:45.990Z,624.83
2022-12-27T00:01:19.265Z,621.13
2022-12-27T00:01:51.620Z,621.65
2022-12-27T00:02:24.157Z,622.50
2022-12-27T00:02:56.591Z,622.80
2022-12-27T00:03:28.957Z,610.00
2022-12-27T00:04:01.585Z,621.83
2022-12-27T00:04:34.067Z,619.78
2022-12-27T00:05:07.514Z,620.70
2022-12-27T00:05:43.089Z,616.83
2022-12-27T00:06:17.471Z,635.78
2022-12-27T00:06:49.752Z,627.05
2022-12-27T00:07:22.083Z,624.17
2022-12-27T00:07:55.626Z,627.50
2022-12-27T00:08:27.912Z,617.50
2022-12-27T00:09:01.513Z,627.95
2022-12-27T00:09:34.386Z,617.85
2022-12-27T00:10:07.615Z,621.85
2022-12-27T00:10:40.048Z,613.90
2022-12-27T00:11:13.771Z,615.80
2022-12-27T00:11:46.117Z,617.42
2022-12-27T00:12:18.463Z,621.13
2022-12-27T00:12:50.887Z,608.80
2022-12-27T00:13:24.395Z,615.72
2022-12-27T00:14:03.555Z,626.53
2022-12-27T00:14:35.948Z,613.35
2022-12-27T00:15:08.389Z,606.53
2022-12-27T00:15:40.879Z,604.20
2022-12-27T00:16:14.438Z,604.67
2022-12-27T00:16:46.824Z,625.85
2022-12-27T00:17:19.140Z,606.95
2022-12-27T00:17:51.508Z,622.00
2022-12-27T00:18:23.798Z,614.88
2022-12-27T00:18:56.302Z,615.42
2022-12-27T00:19:28.619Z,625.67
2022-12-27T00:20:05.413Z,618.95
2022-12-27T00:20:43.855Z,619.28
2022-12-27T00:21:17.870Z,609.33
2022-12-27T00:21:50.729Z,615.65
2022-12-27T00:22:23.068Z,613.40
2022-12-27T00:22:55.385Z,611.80
2022-12-27T00:23:28.181Z,624.30
2022-12-27T00:24:00.664Z,622.70
2022-12-27T00:24:32.979Z,625.08
2022-12-27T00:25:05.503Z,613.10
2022-12-27T00:25:37.791Z,610.75
2022-12-27T00:26:17.672Z,615.03
2022-12-27T00:26:50.038Z,605.40
2022-12-27T00:27:22.458Z,609.90
2022-12-27T00:27:54.891Z,608.53
2022-12-27T00:28:29.556Z,627.05
2022-12-27T00:29:02.561Z,621.20
2022-12-27T00:29:34.926Z,624.55
2022-12-27T00:30:07.924Z,633.42
2022-12-27T00:30:40.243Z,613.70
2022-12-27T00:31:13.148Z,617.13
2022-12-27T00:31:45.915Z,626.20
2022-12-27T00:32:18.284Z,629.42
2022-12-27T00:32:50.632Z,626.83
2022-12-27T00:33:22.912Z,625.83
2022-12-27T00:33:56.124Z,625.13
2022-12-27T00:34:28.806Z,608.83
2022-12-27T00:35:01.166Z,622.38
2022-12-27T00:35:33.580Z,618.67
2022-12-27T00:36:06.810Z,623.03
2022-12-27T00:36:39.077Z,618.08
2022-12-27T00:37:11.350Z,620.88
2022-12-27T00:37:43.635Z,625.53
2022-12-27T00:38:16.007Z,625.20
2022-12-27T00:38:48.360Z,613.58
2022-12-27T00:39:20.869Z,613.78
2022-12-27T00:39:53.324Z,597.17
2022-12-27T00:40:25.648Z,609.00
2022-12-27T00:40:59.040Z,617.35
2022-12-27T00:41:31.678Z,618.92
2022-12-27T00:42:04.035Z,604.13
2022-12-27T00:42:36.309Z,613.75
2022-12-27T00:43:08.604Z,612.72
2022-12-27T00:43:41.317Z,606.33
2022-12-27T00:44:13.651Z,621.55
2022-12-27T00:44:46.192Z,602.95
2022-12-27T00:45:18.636Z,623.38
2022-12-27T00:45:51.194Z,614.42
2022-12-27T00:46:23.983Z,616.08
2022-12-27T00:46:56.264Z,629.53
2022-12-27T00:47:28.553Z,627.90
2022-12-27T00:48:00.831Z,612.08
2022-12-27T00:48:33.417Z,608.60
2022-12-27T00:49:05.748Z,593.60
2022-12-27T00:49:38.198Z,619.63
2022-12-27T00:50:10.461Z,622.22
2022-12-27T00:50:43.973Z,608.58
2022-12-27T00:51:21.231Z,621.13
2022-12-27T00:51:53.647Z,621.75
2022-12-27T00:52:25.953Z,623.85
2022-12-27T00:52:58.226Z,609.90
2022-12-27T00:53:30.663Z,621.40
2022-12-27T00:54:02.942Z,614.20
2022-12-27T00:54:35.396Z,618.75
2022-12-27T00:55:09.402Z,618.20
2022-12-27T00:55:45.124Z,613.17
2022-12-27T00:56:18.647Z,615.75
2022-12-27T00:56:50.915Z,619.22
2022-12-27T00:57:23.321Z,623.22
2022-12-27T00:57:55.588Z,612.85
2022-12-27T00:58:27.971Z,612.35
2022-12-27T00:59:03.423Z,601.35
2022-12-27T00:59:35.704Z,622.25
2022-12-27T01:00:10.530Z,624.35
2022-12-27T01:00:43.299Z,607.03
2022-12-27T01:01:17.220Z,614.95
2022-12-27T01:01:49.670Z,618.17
2022-12-27T01:02:22.074Z,612.08
2022-12-27T01:02:54.595Z,618.95
2022-12-27T01:03:26.893Z,626.70
2022-12-27T01:03:59.379Z,619.75
2022-12-27T01:04:31.731Z,619.17
2022-12-27T01:05:04.219Z,615.63
2022-12-27T01:05:37.545Z,608.78
2022-12-27T01:06:11.156Z,603.92
2022-12-27T01:06:43.462Z,601.50
2022-12-27T01:07:15.939Z,619.33
2022-12-27T01:07:48.445Z,608.35
2022-12-27T01:08:21.132Z,621.60
2022-12-27T01:08:54.588Z,616.97
2022-12-27T01:09:26.915Z,622.83
2022-12-27T01:09:59.161Z,611.33
2022-12-27T01:10:31.760Z,625.90
2022-12-27T01:11:05.034Z,625.08
2022-12-27T01:11:37.473Z,610.85
2022-12-27T01:12:09.981Z,612.35
2022-12-27T01:12:42.378Z,624.15
2022-12-27T01:13:14.668Z,616.28
2022-12-27T01:13:47.695Z,624.17
2022-12-27T01:14:20.039Z,619.88
2022-12-27T01:14:52.379Z,630.92
2022-12-27T01:15:24.666Z,630.08
2022-12-27T01:15:57.131Z,626.05
2022-12-27T01:16:30.248Z,629.58
2022-12-27T01:17:02.562Z,612.38
2022-12-27T01:17:35.230Z,617.10
2022-12-27T01:18:07.691Z,624.08
2022-12-27T01:18:40.091Z,626.95
2022-12-27T01:19:12.446Z,624.97
2022-12-27T01:19:44.756Z,614.80
2022-12-27T01:20:17.078Z,619.65
2022-12-27T01:20:49.367Z,630.63
2022-12-27T01:21:23.072Z,625.67
2022-12-27T01:21:55.428Z,618.03
2022-12-27T01:22:39.394Z,693.03
2022-12-27T01:23:15.485Z,610.53
2022-12-27T01:23:48.203Z,624.78
2022-12-27T01:24:21.039Z,628.15
2022-12-27T01:24:53.558Z,630.58
2022-12-27T01:25:25.838Z,623.72
2022-12-27T01:26:02.262Z,628.95
2022-12-27T01:26:35.032Z,621.67
2022-12-27T01:27:07.379Z,628.80
2022-12-27T01:27:39.749Z,622.13
2022-12-27T01:28:12.033Z,618.72
2022-12-27T01:28:44.814Z,635.55
2022-12-27T01:29:17.543Z,629.03
2022-12-27T01:29:49.843Z,633.28
2022-12-27T01:30:22.138Z,620.75
2022-12-27T01:30:54.479Z,617.75
2022-12-27T01:31:28.442Z,632.13
2022-12-27T01:32:00.886Z,612.65
2022-12-27T01:32:35.867Z,620.65
2022-12-27T01:33:08.295Z,628.58
2022-12-27T01:33:40.763Z,617.90
2022-12-27T01:34:13.024Z,629.60
2022-12-27T01:34:45.376Z,618.00
2022-12-27T01:35:17.800Z,612.20
2022-12-27T01:35:50.233Z,616.85
2022-12-27T01:36:23.444Z,630.50
2022-12-27T01:36:55.719Z,615.78
2022-12-27T01:37:29.179Z,624.67
2022-12-27T01:38:01.461Z,623.45
2022-12-27T01:38:33.843Z,630.22
2022-12-27T01:39:06.235Z,611.13
2022-12-27T01:39:38.529Z,607.60
2022-12-27T01:40:11.048Z,616.17
2022-12-27T01:40:43.358Z,625.80
2022-12-27T01:41:35.785Z,624.17
2022-12-27T01:42:44.769Z,606.67
2022-12-27T01:43:17.937Z,597.05
2022-12-27T01:43:50.310Z,624.70
2022-12-27T01:44:40.693Z,636.45
2022-12-27T01:45:17.384Z,644.22
2022-12-27T01:45:49.731Z,622.35
2022-12-27T01:46:22.615Z,622.97
2022-12-27T01:46:55.036Z,640.60
2022-12-27T01:47:33.837Z,633.00
2022-12-27T01:48:06.201Z,627.17
2022-12-27T01:48:38.624Z,629.58
2022-12-27T01:49:11.895Z,631.33
2022-12-27T01:49:53.495Z,622.30
2022-12-27T01:50:33.742Z,623.70
2022-12-27T01:51:06.417Z,627.40
2022-12-27T01:51:38.772Z,615.83
2022-12-27T01:52:11.838Z,617.95
2022-12-27T01:52:50.646Z,626.30
2022-12-27T01:53:31.025Z,624.55
2022-12-27T01:54:03.354Z,622.38
2022-12-27T01:54:35.958Z,626.83
2022-12-27T01:55:28.738Z,620.85
2022-12-27T01:56:09.788Z,622.03
2022-12-27T01:56:42.140Z,616.10
2022-12-27T01:57:14.464Z,630.95
2022-12-27T01:57:47.992Z,636.13
2022-12-27T01:58:20.253Z,626.55
2022-12-27T01:58:58.837Z,640.88
2022-12-27T01:59:31.564Z,610.97
2022-12-27T02:00:04.576Z,622.95
2022-12-27T02:00:38.184Z,616.40
2022-12-27T02:01:13.437Z,630.42
2022-12-27T02:01:47.075Z,629.80
2022-12-27T02:02:19.893Z,627.63
2022-12-27T02:02:56.447Z,620.45
2022-12-27T02:03:30.456Z,627.75
2022-12-27T02:04:05.414Z,638.88
2022-12-27T02:04:37.917Z,631.15
2022-12-27T02:05:11.630Z,632.60
2022-12-27T02:05:43.945Z,618.83
2022-12-27T02:06:17.040Z,625.83
2022-12-27T02:06:49.637Z,611.92
2022-12-27T02:07:25.850Z,639.70
2022-12-27T02:07:58.198Z,639.15
2022-12-27T02:08:36.053Z,637.50
2022-12-27T02:09:14.433Z,636.90
2022-12-27T02:09:52.627Z,638.10
2022-12-27T02:10:25.549Z,626.33
2022-12-27T02:10:58.779Z,617.13
2022-12-27T02:11:51.375Z,624.22
2022-12-27T02:12:25.125Z,624.13
2022-12-27T02:12:58.359Z,633.13
2022-12-27T02:13:32.913Z,637.90
2022-12-27T02:14:05.506Z,634.30
2022-12-27T02:14:45.734Z,625.78
2022-12-27T02:15:19.305Z,607.35
2022-12-27T02:15:51.642Z,610.40
2022-12-27T02:16:23.952Z,604.88
2022-12-27T02:16:57.452Z,611.83
2022-12-27T02:17:30.829Z,612.03
2022-12-27T02:18:03.865Z,627.67
2022-12-27T02:18:36.262Z,624.75
2022-12-27T02:19:14.301Z,641.67
2022-12-27T02:19:46.538Z,623.78
2022-12-27T02:20:23.056Z,622.83
2022-12-27T02:21:18.956Z,616.63
2022-12-27T02:22:01.913Z,637.90
2022-12-27T02:22:58.615Z,642.75
2022-12-27T02:23:52.512Z,630.03
2022-12-27T02:24:25.069Z,621.63
2022-12-27T02:25:00.813Z,626.22
2022-12-27T02:25:39.206Z,618.70
2022-12-27T02:26:41.329Z,613.83
2022-12-27T02:27:16.364Z,620.28
2022-12-27T02:28:01.942Z,631.88
2022-12-27T02:29:00.474Z,624.80
2022-12-27T02:29:43.473Z,632.63
2022-12-27T02:30:16.026Z,618.15
2022-12-27T02:30:49.406Z,614.65
2022-12-27T02:31:41.966Z,611.10
2022-12-27T02:32:17.087Z,603.38
2022-12-27T02:33:04.198Z,627.53
2022-12-27T02:33:37.930Z,625.03
2022-12-27T02:34:16.084Z,630.10
2022-12-27T02:34:48.473Z,606.38
2022-12-27T02:35:29.777Z,617.88
2022-12-27T02:36:04.876Z,614.70
2022-12-27T02:36:38.163Z,624.92
2022-12-27T02:37:12.563Z,623.92
2022-12-27T02:37:47.845Z,628.10
2022-12-27T02:38:22.021Z,618.72
2022-12-27T02:38:57.810Z,621.38
2022-12-27T02:39:33.161Z,636.58
2022-12-27T02:40:26.166Z,612.90
2022-12-27T02:41:18.650Z,607.55
2022-12-27T02:42:10.493Z,605.78
2022-12-27T02:43:01.419Z,613.75
2022-12-27T02:43:52.462Z,607.53
2022-12-27T02:44:43.539Z,620.92
2022-12-27T02:45:38.241Z,610.38
2022-12-27T02:46:37.890Z,622.42
2022-12-27T02:47:39.325Z,606.47
2022-12-27T02:48:32.303Z,612.50
2022-12-27T02:49:41.516Z,599.55
2022-12-27T02:50:33.332Z,588.60
2022-12-27T02:51:43.271Z,588.78
2022-12-27T02:53:09.537Z,584.33
2022-12-27T02:53:47.868Z,604.05
2022-12-27T02:54:23.832Z,624.28
2022-12-27T02:54:58.758Z,616.95
2022-12-27T02:56:18.634Z,610.53
2022-12-27T02:57:08.575Z,594.83
2022-12-27T02:58:31.411Z,575.15
2022-12-27T02:59:22.396Z,605.13
2022-12-27T03:00:16.374Z,599.10
2022-12-27T03:01:12.182Z,596.55
2022-12-27T03:02:26.140Z,607.92
2022-12-27T03:03:26.861Z,616.33
2022-12-27T03:03:59.587Z,583.15
2022-12-27T03:04:50.079Z,600.70
2022-12-27T03:05:22.593Z,623.10
2022-12-27T03:06:14.830Z,631.33
2022-12-27T03:06:47.272Z,620.80
2022-12-27T03:07:25.329Z,644.40
2022-12-27T03:08:16.043Z,635.08
2022-12-27T03:09:03.425Z,607.35
2022-12-27T03:10:01.303Z,618.80
2022-12-27T03:11:04.287Z,613.88
2022-12-27T03:12:02.222Z,613.38
2022-12-27T03:12:59.771Z,586.85
2022-12-27T03:13:53.538Z,595.85
2022-12-27T03:14:47.472Z,600.20
2022-12-27T03:15:41.796Z,608.35
2022-12-27T03:16:14.129Z,612.75
2022-12-27T03:16:56.076Z,631.65
2022-12-27T03:17:37.214Z,625.72
2022-12-27T03:18:35.674Z,619.42
2022-12-27T03:19:10.575Z,595.45
2022-12-27T03:20:06.728Z,606.72
2022-12-27T03:20:57.439Z,588.47
2022-12-27T03:21:53.028Z,615.60
2022-12-27T03:22:44.855Z,609.17
2022-12-27T03:23:36.242Z,601.22
2022-12-27T03:24:27.559Z,590.60
2022-12-27T03:25:20.456Z,595.72
2022-12-27T03:25:53.775Z,603.78
2022-12-27T03:26:27.838Z,592.38
2022-12-27T03:27:01.122Z,611.00
2022-12-27T03:27:35.410Z,604.63
2022-12-27T03:28:28.787Z,599.95
2022-12-27T03:29:21.043Z,614.22
2022-12-27T03:30:13.027Z,608.13
2022-12-27T03:31:05.344Z,600.88
2022-12-27T03:32:14.678Z,607.72
2022-12-27T03:33:16.023Z,612.45
2022-12-27T03:33:49.420Z,606.58
2022-12-27T03:34:41.964Z,590.03
2022-12-27T03:35:17.824Z,608.83
2022-12-27T03:36:11.717Z,596.90
2022-12-27T03:37:02.538Z,608.20
2022-12-27T03:37:56.473Z,603.28
2022-12-27T03:38:34.507Z,608.67
2022-12-27T03:39:14.068Z,588.95
2022-12-27T03:39:52.441Z,617.30
2022-12-27T03:40:34.825Z,614.38
2022-12-27T03:41:26.621Z,604.35
2022-12-27T03:42:19.509Z,611.28
2022-12-27T03:43:14.203Z,607.22
2022-12-27T03:43:47.005Z,608.53
2022-12-27T03:44:25.460Z,607.05
2022-12-27T03:44:57.809Z,599.90
2022-12-27T03:45:53.573Z,610.88
2022-12-27T03:46:34.000Z,599.70
2022-12-27T03:47:31.552Z,602.08
2022-12-27T03:48:05.122Z,611.40
2022-12-27T03:48:46.960Z,616.58
2022-12-27T03:49:37.648Z,610.67
2022-12-27T03:50:12.872Z,609.95
2022-12-27T03:50:49.053Z,608.35
2022-12-27T03:51:23.523Z,602.30
2022-12-27T03:51:59.050Z,611.28
2022-12-27T03:52:37.847Z,615.05
2022-12-27T03:53:12.275Z,601.95
2022-12-27T03:53:46.176Z,629.85
2022-12-27T03:54:26.620Z,622.83
2022-12-27T03:54:59.467Z,617.97
2022-12-27T03:55:33.613Z,613.08
2022-12-27T03:56:06.928Z,619.80
2022-12-27T03:56:40.132Z,617.28
2022-12-27T03:57:15.025Z,620.10
2022-12-27T03:57:47.513Z,620.72
2022-12-27T03:58:19.920Z,621.58
2022-12-27T03:58:53.120Z,618.42
2022-12-27T03:59:25.595Z,622.53
2022-12-27T03:59:57.986Z,622.38
2022-12-27T04:00:30.382Z,625.78
2022-12-27T04:01:02.741Z,613.08
2022-12-27T04:01:35.226Z,615.60
2022-12-27T04:02:08.560Z,622.25
2022-12-27T04:02:41.092Z,621.22
2022-12-27T04:03:13.658Z,619.60
2022-12-27T04:03:45.944Z,610.63
2022-12-27T04:04:19.849Z,623.60
2022-12-27T04:04:52.234Z,609.70
2022-12-27T04:05:24.518Z,613.03
2022-12-27T04:05:56.889Z,601.60
2022-12-27T04:06:29.595Z,608.85
2022-12-27T04:07:02.090Z,609.17
2022-12-27T04:07:34.499Z,608.83
2022-12-27T04:08:25.038Z,609.63
2022-12-27T04:09:16.018Z,612.03
2022-12-27T04:10:06.945Z,592.75
2022-12-27T04:10:57.811Z,597.03
2022-12-27T04:11:48.951Z,603.60
2022-12-27T04:12:40.839Z,612.65
2022-12-27T04:13:31.595Z,596.03
2022-12-27T04:14:22.457Z,602.20
2022-12-27T04:15:13.479Z,595.38
2022-12-27T04:16:04.495Z,589.65
2022-12-27T04:16:55.353Z,601.70
2022-12-27T04:17:45.942Z,593.78
2022-12-27T04:18:36.855Z,586.47
2022-12-27T04:19:27.741Z,583.13
2022-12-27T04:20:18.560Z,601.67
2022-12-27T04:21:09.331Z,589.42
2022-12-27T04:22:00.172Z,590.55
2022-12-27T04:22:51.028Z,595.25
2022-12-27T04:23:41.856Z,588.85
2022-12-27T04:24:32.753Z,577.28
2022-12-27T04:25:23.583Z,587.40
2022-12-27T04:26:14.537Z,581.33
2022-12-27T04:27:05.706Z,594.90
2022-12-27T04:27:56.429Z,588.95
2022-12-27T04:28:47.325Z,593.63
2022-12-27T04:29:38.463Z,591.05
2022-12-27T04:30:29.372Z,592.55
2022-12-27T04:31:20.255Z,600.50
2022-12-27T04:32:11.141Z,603.97
2022-12-27T04:33:01.977Z,581.38
2022-12-27T04:33:52.809Z,611.83
2022-12-27T04:34:41.278Z,602.88
2022-12-27T04:35:14.031Z,594.13
2022-12-27T04:35:46.335Z,611.13
2022-12-27T04:36:18.672Z,607.25
2022-12-27T04:36:51.030Z,585.80
2022-12-27T04:37:23.967Z,596.67
2022-12-27T04:37:56.348Z,596.35
2022-12-27T04:38:28.609Z,600.95
2022-12-27T04:39:01.066Z,597.25
2022-12-27T04:39:33.662Z,599.33
2022-12-27T04:40:24.674Z,604.13
2022-12-27T04:41:15.515Z,598.13
2022-12-27T04:42:06.444Z,596.15
2022-12-27T04:42:57.408Z,602.33
2022-12-27T04:43:48.157Z,591.10
2022-12-27T04:44:39.075Z,598.15
2022-12-27T04:45:29.847Z,597.17
2022-12-27T04:46:20.755Z,609.92
2022-12-27T04:47:11.636Z,607.40
2022-12-27T04:48:02.439Z,580.03
2022-12-27T04:48:53.331Z,579.25
2022-12-27T04:49:45.167Z,602.45
2022-12-27T04:50:45.413Z,582.08
2022-12-27T04:52:32.148Z,570.60
2022-12-27T04:53:27.029Z,574.17
2022-12-27T04:54:19.060Z,586.45
2022-12-27T04:54:57.277Z,579.35
2022-12-27T04:55:30.075Z,580.13
2022-12-27T04:56:03.022Z,587.58
2022-12-27T04:56:35.380Z,598.70
2022-12-27T04:57:07.792Z,593.03
2022-12-27T04:57:40.205Z,585.42
2022-12-27T04:58:12.496Z,596.33
2022-12-27T04:59:05.054Z,595.42
2022-12-27T04:59:56.046Z,594.17
2022-12-27T05:01:02.132Z,582.80
2022-12-27T05:01:53.087Z,592.53
2022-12-27T05:02:25.678Z,597.00
2022-12-27T05:02:58.667Z,601.95
2022-12-27T05:03:31.105Z,610.90
2022-12-27T05:04:03.457Z,611.67
2022-12-27T05:04:37.034Z,606.22
2022-12-27T05:05:12.871Z,592.63
2022-12-27T05:05:45.837Z,610.17
2022-12-27T05:06:18.631Z,609.53
2022-12-27T05:06:50.973Z,608.80
2022-12-27T05:07:41.924Z,601.42
2022-12-27T05:08:33.639Z,608.47
2022-12-27T05:09:24.586Z,599.13
2022-12-27T05:10:16.596Z,606.33
2022-12-27T05:11:07.627Z,596.75
2022-12-27T05:11:58.163Z,592.85
2022-12-27T05:12:49.166Z,595.17
2022-12-27T05:13:39.884Z,601.20
2022-12-27T05:14:14.027Z,599.53
2022-12-27T05:14:46.418Z,596.60
2022-12-27T05:15:18.744Z,593.38
2022-12-27T05:15:51.164Z,593.00
2022-12-27T05:16:23.548Z,593.00
2022-12-27T05:16:56.903Z,596.47
2022-12-27T05:17:30.312Z,592.38
2022-12-27T05:18:02.602Z,591.55
2022-12-27T05:18:34.957Z,590.22
2022-12-27T05:19:08.921Z,586.38
2022-12-27T05:19:41.265Z,596.17
2022-12-27T05:20:13.756Z,594.97
2022-12-27T05:20:46.049Z,596.67
2022-12-27T05:21:18.327Z,596.03
2022-12-27T05:22:09.911Z,594.15
2022-12-27T05:23:00.802Z,594.55
2022-12-27T05:23:56.019Z,599.15
2022-12-27T05:24:50.555Z,595.13
2022-12-27T05:25:34.947Z,592.15
2022-12-27T05:26:07.326Z,607.83
2022-12-27T05:26:40.534Z,601.17
2022-12-27T05:27:12.912Z,601.22
2022-12-27T05:27:45.201Z,605.95
2022-12-27T05:28:17.481Z,604.08
2022-12-27T05:28:50.872Z,609.08
2022-12-27T05:29:23.179Z,610.15
2022-12-27T05:29:55.544Z,597.65
2022-12-27T05:30:28.219Z,605.50
2022-12-27T05:31:01.890Z,601.95
2022-12-27T05:31:35.587Z,601.10
2022-12-27T05:32:12.833Z,600.22
2022-12-27T05:32:45.724Z,594.75
2022-12-27T05:33:18.003Z,603.13
2022-12-27T05:33:50.762Z,601.17
2022-12-27T05:34:23.169Z,603.10
2022-12-27T05:34:55.459Z,600.63
2022-12-27T05:35:27.926Z,600.13
2022-12-27T05:36:00.499Z,598.75
2022-12-27T05:36:33.117Z,594.78
2022-12-27T05:37:05.424Z,597.90
2022-12-27T05:37:37.692Z,584.67
2022-12-27T05:38:10.328Z,588.90
2022-12-27T05:38:42.612Z,597.58
2022-12-27T05:39:14.882Z,598.40
2022-12-27T05:39:47.158Z,592.78
2022-12-27T05:40:19.433Z,588.58
2022-12-27T05:40:51.779Z,587.47
2022-12-27T05:41:24.342Z,586.28
2022-12-27T05:41:56.664Z,590.38
2022-12-27T05:42:29.018Z,587.95
2022-12-27T05:43:02.190Z,582.90
2022-12-27T05:43:34.566Z,592.13
2022-12-27T05:44:07.582Z,596.17
2022-12-27T05:44:40.121Z,581.00
2022-12-27T05:45:12.707Z,589.25
2022-12-27T05:45:45.008Z,597.05
2022-12-27T05:46:19.074Z,599.05
2022-12-27T05:46:51.423Z,597.97
2022-12-27T05:47:23.718Z,596.88
2022-12-27T05:47:56.317Z,593.42
2022-12-27T05:48:28.623Z,584.15
2022-12-27T05:49:01.050Z,589.50
2022-12-27T05:49:33.329Z,585.85
2022-12-27T05:50:05.881Z,589.70
2022-12-27T05:50:38.586Z,587.72
2022-12-27T05:51:20.964Z,592.75
2022-12-27T05:51:53.300Z,596.72
2022-12-27T05:52:25.600Z,587.83
2022-12-27T05:52:58.159Z,587.95
2022-12-27T05:53:30.655Z,594.30
2022-12-27T05:54:03.173Z,590.95
2022-12-27T05:54:35.635Z,595.65
2022-12-27T05:55:08.394Z,594.17
2022-12-27T05:55:41.649Z,590.40
2022-12-27T05:56:15.450Z,585.92
2022-12-27T05:56:47.886Z,584.17
2022-12-27T05:57:20.201Z,589.53
2022-12-27T05:57:52.575Z,588.60
2022-12-27T05:58:25.463Z,609.80
2022-12-27T05:58:57.816Z,601.15
2022-12-27T05:59:30.173Z,595.95
2022-12-27T06:00:03.175Z,590.63
2022-12-27T06:00:44.495Z,591.20
2022-12-27T06:01:17.905Z,584.50
2022-12-27T06:01:51.481Z,591.90
2022-12-27T06:02:24.055Z,593.90
2022-12-27T06:02:56.577Z,589.55
2022-12-27T06:03:29.012Z,593.85
2022-12-27T06:04:01.449Z,584.80
2022-12-27T06:04:34.923Z,600.35
2022-12-27T06:05:07.421Z,607.97
2022-12-27T06:05:39.940Z,613.08
2022-12-27T06:06:12.951Z,605.53
2022-12-27T06:06:45.325Z,605.33
2022-12-27T06:07:18.075Z,597.90
2022-12-27T06:07:51.019Z,611.83
2022-12-27T06:08:23.373Z,604.38
2022-12-27T06:08:55.726Z,606.50
2022-12-27T06:09:28.099Z,604.60
2022-12-27T06:10:00.379Z,597.45
2022-12-27T06:10:32.746Z,598.35
2022-12-27T06:11:12.744Z,595.60
2022-12-27T06:11:46.129Z,598.88
2022-12-27T06:12:18.624Z,590.70
2022-12-27T06:12:50.883Z,600.67
2022-12-27T06:13:23.164Z,594.83
2022-12-27T06:13:55.511Z,598.70
2022-12-27T06:14:29.458Z,596.88
2022-12-27T06:15:02.232Z,597.90
2022-12-27T06:15:35.095Z,594.47
2022-12-27T06:16:10.476Z,590.47
2022-12-27T06:16:43.477Z,596.28
2022-12-27T06:17:16.133Z,589.80
2022-12-27T06:17:49.607Z,593.45
2022-12-27T06:18:21.875Z,597.45
2022-12-27T06:18:54.340Z,592.58
2022-12-27T06:19:26.768Z,589.90
2022-12-27T06:19:59.154Z,594.45
2022-12-27T06:20:31.432Z,591.75
2022-12-27T06:21:05.038Z,590.45
2022-12-27T06:21:37.376Z,589.67
2022-12-27T06:22:09.818Z,584.55
2022-12-27T06:22:42.126Z,587.88
2022-12-27T06:23:14.519Z,590.80
2022-12-27T06:23:47.556Z,588.45
2022-12-27T06:24:19.957Z,587.85
2022-12-27T06:24:52.445Z,589.05
2022-12-27T06:25:24.655Z,592.10
2022-12-27T06:25:57.134Z,584.17
2022-12-27T06:26:29.891Z,592.03
2022-12-27T06:27:02.178Z,589.63
2022-12-27T06:27:34.834Z,589.75
2022-12-27T06:28:07.114Z,587.50
2022-12-27T06:28:39.455Z,589.35
2022-12-27T06:29:12.428Z,585.90
2022-12-27T06:29:44.773Z,587.03
2022-12-27T06:30:17.127Z,589.65
2022-12-27T06:30:50.847Z,589.95
2022-12-27T06:31:23.868Z,587.08
2022-12-27T06:31:56.279Z,589.50
2022-12-27T06:32:28.583Z,594.53
2022-12-27T06:33:01.302Z,589.03
2022-12-27T06:33:33.670Z,592.08
2022-12-27T06:34:06.263Z,594.25
2022-12-27T06:34:38.580Z,591.90
2022-12-27T06:35:11.615Z,593.50
2022-12-27T06:35:44.661Z,595.47
2022-12-27T06:36:18.413Z,595.60
2022-12-27T06:36:51.706Z,589.95
2022-12-27T06:37:24.038Z,590.20
2022-12-27T06:37:56.363Z,589.22
2022-12-27T06:38:28.751Z,588.10
2022-12-27T06:39:01.268Z,582.17
2022-12-27T06:39:33.568Z,587.47
2022-12-27T06:40:06.262Z,583.03
2022-12-27T06:40:38.761Z,589.05
2022-12-27T06:41:12.933Z,583.45
2022-12-27T06:41:45.403Z,587.65
2022-12-27T06:42:17.852Z,588.45
2022-12-27T06:42:50.149Z,590.53
2022-12-27T06:43:22.456Z,590.80
2022-12-27T06:43:55.888Z,588.53
2022-12-27T06:44:28.267Z,589.75
2022-12-27T06:45:00.995Z,588.80
2022-12-27T06:45:33.486Z,583.92
2022-12-27T06:46:16.789Z,585.25
2022-12-27T06:46:49.321Z,594.28
2022-12-27T06:47:21.713Z,593.90
2022-12-27T06:47:54.010Z,588.38
2022-12-27T06:48:26.725Z,589.72
2022-12-27T06:48:59.029Z,591.40
2022-12-27T06:49:31.461Z,590.53
2022-12-27T06:50:04.171Z,590.13
2022-12-27T06:50:37.029Z,587.90
2022-12-27T06:51:10.295Z,592.75
2022-12-27T06:51:42.575Z,586.10
2022-12-27T06:52:15.186Z,585.22
2022-12-27T06:52:48.023Z,588.53
2022-12-27T06:53:20.358Z,592.28
2022-12-27T06:53:53.004Z,588.90
2022-12-27T06:54:25.296Z,583.13
2022-12-27T06:54:57.627Z,585.53
2022-12-27T06:55:30.134Z,587.70
2022-12-27T06:56:06.335Z,587.88
2022-12-27T06:56:38.724Z,585.58
2022-12-27T06:57:11.412Z,584.25
2022-12-27T06:57:43.795Z,584.75
2022-12-27T06:58:16.500Z,587.50
2022-12-27T06:58:49.808Z,586.28
2022-12-27T06:59:22.113Z,588.58
2022-12-27T06:59:54.415Z,591.47
2022-12-27T07:00:26.812Z,587.75
2022-12-27T07:01:06.632Z,587.42
2022-12-27T07:01:39.115Z,595.70
2022-12-27T07:02:11.711Z,590.33
2022-12-27T07:02:44.350Z,587.45
2022-12-27T07:03:16.869Z,588.50
2022-12-27T07:03:50.403Z,585.38
2022-12-27T07:04:22.891Z,578.17
2022-12-27T07:04:55.172Z,584.20
2022-12-27T07:05:27.466Z,582.65
2022-12-27T07:06:03.086Z,577.65
2022-12-27T07:06:36.608Z,584.67
2022-12-27T07:07:15.296Z,578.72
2022-12-27T07:07:48.056Z,582.50
2022-12-27T07:08:20.416Z,584.03
2022-12-27T07:08:53.046Z,586.17
2022-12-27T07:09:25.371Z,583.63
2022-12-27T07:09:57.649Z,583.50
2022-12-27T07:10:30.143Z,581.60
2022-12-27T07:11:03.539Z,577.42
2022-12-27T07:11:37.038Z,576.72
2022-12-27T07:12:09.329Z,581.55
2022-12-27T07:12:41.829Z,582.35
2022-12-27T07:13:14.338Z,583.30
2022-12-27T07:13:48.417Z,581.00
2022-12-27T07:14:20.769Z,581.13
2022-12-27T07:14:53.055Z,583.17
2022-12-27T07:15:25.443Z,578.97
2022-12-27T07:15:57.747Z,584.35
2022-12-27T07:16:31.000Z,583.67
2022-12-27T07:17:03.541Z,581.10
2022-12-27T07:17:36.383Z,582.58
2022-12-27T07:18:08.754Z,583.75
2022-12-27T07:18:41.463Z,582.42
2022-12-27T07:19:13.810Z,583.05
2022-12-27T07:19:47.590Z,582.83
2022-12-27T07:20:19.875Z,584.60
2022-12-27T07:20:52.147Z,577.30
2022-12-27T07:21:25.313Z,583.70
2022-12-27T07:21:57.604Z,585.45
2022-12-27T07:22:30.062Z,584.40
2022-12-27T07:23:02.320Z,582.45
2022-12-27T07:23:34.641Z,578.35
2022-12-27T07:24:07.165Z,576.80
2022-12-27T07:24:39.490Z,576.60
2022-12-27T07:25:12.856Z,578.58
2022-12-27T07:25:45.360Z,581.47
2022-12-27T07:26:22.332Z,580.55
2022-12-27T07:26:54.612Z,582.15
2022-12-27T07:27:26.904Z,578.63
2022-12-27T07:27:59.255Z,582.25
2022-12-27T07:28:31.900Z,575.45
2022-12-27T07:29:04.196Z,581.10
2022-12-27T07:29:41.937Z,585.15
2022-12-27T07:30:17.584Z,572.10
2022-12-27T07:30:49.919Z,573.55
2022-12-27T07:31:24.308Z,573.20
2022-12-27T07:31:56.643Z,566.88
2022-12-27T07:32:28.986Z,574.67
2022-12-27T07:33:01.287Z,592.40
2022-12-27T07:33:33.956Z,586.50
2022-12-27T07:34:07.131Z,578.65
2022-12-27T07:34:39.426Z,574.95
2022-12-27T07:35:11.761Z,574.25
2022-12-27T07:35:45.295Z,570.63
2022-12-27T07:36:19.244Z,572.13
2022-12-27T07:36:51.902Z,573.35
2022-12-27T07:37:24.191Z,573.22
2022-12-27T07:37:56.559Z,574.72
2022-12-27T07:38:28.923Z,575.88
2022-12-27T07:39:01.362Z,572.90
2022-12-27T07:39:33.703Z,574.15
2022-12-27T07:40:06.414Z,575.60
2022-12-27T07:40:38.756Z,575.85
2022-12-27T07:41:12.045Z,575.78
2022-12-27T07:41:44.376Z,574.63
2022-12-27T07:42:18.440Z,575.85
2022-12-27T07:42:50.749Z,572.30
2022-12-27T07:43:23.335Z,570.47